M I D A S
Marine Information and Data Acquisition System
Tripno 1848 of the Zeeleeuw from 2010-03-24 07:33:29 to 2010-03-24 13:09:19
Back to CruiseResearch ActivitiesStationsMapUnderway DataData graphs

EquipmentUnitsComment
TimeDGPSUTC
LatitudeDGPSDM.mWGS84
LongitudeDGPSDM.mWGS84
HeadingGyrodeg 
SOGDGPSknotsSpeed over ground
COGDGPSdegCourse over ground
DepthEcho soundermeters200 kHz
Missing or incorrect values are displayed as -999
Navigation data collected by the RV Zeeleeuw from 2010-03-24 07:34:48 to 2010-03-24 13:20:32
                                                                                    Next 1000 lines
Time Latitude Longitude Heading SOG COG Depth
2010-03-24 07:34:58 51°13.661 2°55.962 132.2 0.1 233 -999
2010-03-24 07:35:03 51°13.662 2°55.962 133.2 -999 9 8
2010-03-24 07:35:08 51°13.661 2°55.962 133.4 0.1 217 8
2010-03-24 07:35:13 51°13.661 2°55.962 133 -999 123 8
2010-03-24 07:35:18 51°13.662 2°55.962 132.9 -999 99 8
2010-03-24 07:35:23 51°13.662 2°55.962 132.9 -999 315 7.9
2010-03-24 07:35:28 51°13.662 2°55.962 133 -999 228 8
2010-03-24 07:35:33 51°13.662 2°55.962 133.2 -999 270 8
2010-03-24 07:35:38 51°13.662 2°55.962 133.3 -999 269 8
2010-03-24 07:35:43 51°13.662 2°55.962 133.6 -999 281 8
2010-03-24 07:35:48 51°13.662 2°55.962 133.9 -999 266 8
2010-03-24 07:35:53 51°13.662 2°55.962 134.3 -999 353 8
2010-03-24 07:35:58 51°13.662 2°55.962 134.4 -999 50 8
2010-03-24 07:36:03 51°13.662 2°55.962 134.4 -999 47 8
2010-03-24 07:36:08 51°13.662 2°55.962 134.4 -999 255 8
2010-03-24 07:36:13 51°13.662 2°55.962 134.4 -999 240 8
2010-03-24 07:36:18 51°13.662 2°55.962 134.4 -999 29 8
2010-03-24 07:36:23 51°13.662 2°55.962 134.4 0.1 47 8
2010-03-24 07:36:28 51°13.662 2°55.962 134.4 0.1 72 8
2010-03-24 07:36:33 51°13.662 2°55.962 134.3 0.1 72 8
2010-03-24 07:36:38 51°13.662 2°55.962 133.8 0.1 64 7.9
2010-03-24 07:36:43 51°13.662 2°55.962 132.9 -999 154 8
2010-03-24 07:36:48 51°13.662 2°55.962 131.8 -999 195 8
2010-03-24 07:36:53 51°13.662 2°55.962 130.9 -999 254 8
2010-03-24 07:36:58 51°13.662 2°55.962 130.4 0.1 166 8
2010-03-24 07:37:03 51°13.662 2°55.962 129.9 0.2 176 8
2010-03-24 07:37:08 51°13.662 2°55.962 128.8 0.1 191 8
2010-03-24 07:37:13 51°13.661 2°55.962 127.1 0.1 180 8.1
2010-03-24 07:37:18 51°13.661 2°55.962 125.7 0.1 197 8
2010-03-24 07:37:23 51°13.661 2°55.962 123.9 0.1 226 8.1
2010-03-24 07:37:28 51°13.661 2°55.962 121.8 0.1 253 8
2010-03-24 07:37:33 51°13.661 2°55.961 120.4 0.3 272 8.1
2010-03-24 07:37:38 51°13.661 2°55.96 119.6 0.6 298 8.1
2010-03-24 07:37:43 51°13.662 2°55.958 119 0.9 284 8.1
2010-03-24 07:37:48 51°13.662 2°55.956 118.8 1.1 297 8.1
2010-03-24 07:37:53 51°13.663 2°55.953 118.6 1.3 291 8.1
2010-03-24 07:37:58 51°13.664 2°55.95 118.6 1.6 296 8.3
2010-03-24 07:38:03 51°13.665 2°55.946 118.8 1.8 294 8.4
2010-03-24 07:38:09 51°13.666 2°55.941 119 2 295 -999
2010-03-24 07:38:14 51°13.668 2°55.937 119 2.3 294 -999
2010-03-24 07:38:20 51°13.669 2°55.931 118.4 2.5 295 -999
2010-03-24 07:38:26 51°13.671 2°55.925 117.6 2.6 292 -999
2010-03-24 07:38:32 51°13.673 2°55.918 116.6 2.8 292 -999
2010-03-24 07:38:37 51°13.674 2°55.912 115.3 3 290 -999
2010-03-24 07:38:41 51°13.675 2°55.907 114.2 3.1 289 -999
2010-03-24 07:38:47 51°13.677 2°55.899 113.5 3.2 288 -999
2010-03-24 07:38:52 51°13.678 2°55.892 112.8 3.3 287 -999
2010-03-24 07:38:57 51°13.68 2°55.884 112.1 3.4 287 -999
2010-03-24 07:39:01 51°13.681 2°55.879 111.5 3.5 286 -999
2010-03-24 07:39:07 51°13.682 2°55.87 111 3.5 286 -999
2010-03-24 07:39:12 51°13.683 2°55.862 110.4 3.6 285 -999
2010-03-24 07:39:17 51°13.685 2°55.854 110.2 3.7 284 -999
2010-03-24 07:39:21 51°13.686 2°55.847 109.8 3.9 283 -999
2010-03-24 07:39:27 51°13.687 2°55.836 109.4 4.3 284 -999
2010-03-24 07:39:32 51°13.689 2°55.827 108.7 4.5 283 -999
2010-03-24 07:39:37 51°13.69 2°55.816 107.9 4.7 283 -999
2010-03-24 07:39:41 51°13.691 2°55.808 107 4.6 282 -999
2010-03-24 07:39:47 51°13.693 2°55.797 106.2 4.3 281 -999
2010-03-24 07:39:52 51°13.694 2°55.788 105.5 4.2 280 -999
2010-03-24 07:39:57 51°13.695 2°55.779 104.6 4.1 279 -999
2010-03-24 07:40:01 51°13.695 2°55.772 103.4 4 278 -999
2010-03-24 07:40:06 51°13.695 2°55.764 102.4 3.8 278 12.6
2010-03-24 07:40:11 51°13.696 2°55.756 101.6 3.5 277 12.7
2010-03-24 07:40:16 51°13.696 2°55.749 101 3.2 277 12.6
2010-03-24 07:40:21 51°13.697 2°55.743 99.8 2.7 277 12.6
2010-03-24 07:40:26 51°13.697 2°55.738 98.3 2 278 12.6
2010-03-24 07:40:31 51°13.698 2°55.735 96.5 1.1 279 12.8
2010-03-24 07:40:36 51°13.698 2°55.734 94.1 0.4 326 12.8
2010-03-24 07:40:41 51°13.699 2°55.735 87.8 0.7 34 12.9
2010-03-24 07:40:46 51°13.7 2°55.737 82.2 1.4 48 12.9
2010-03-24 07:40:50 51°13.702 2°55.74 74.1 1.8 48 13
2010-03-24 07:40:55 51°13.704 2°55.742 65.4 1.9 40 12.9
2010-03-24 07:41:00 51°13.706 2°55.745 55.9 2.1 38 12.9
2010-03-24 07:41:05 51°13.708 2°55.748 49.7 2.2 32 12.7
2010-03-24 07:41:10 51°13.71 2°55.75 44.8 2.3 31 13.2
2010-03-24 07:41:15 51°13.713 2°55.752 38.9 2.1 24 12.6
2010-03-24 07:41:20 51°13.715 2°55.753 33.8 1.6 23 12.6
2010-03-24 07:41:25 51°13.717 2°55.754 30.6 1.1 23 12.7
2010-03-24 07:41:29 51°13.717 2°55.754 27.1 0.6 15 12.6
2010-03-24 07:41:34 51°13.718 2°55.754 23.6 0.1 54 -999
2010-03-24 07:41:39 51°13.717 2°55.754 20.7 0.5 193 12.6
2010-03-24 07:41:44 51°13.716 2°55.754 18.4 1 187 12.6
2010-03-24 07:41:49 51°13.715 2°55.753 17.3 1.2 193 12.6
2010-03-24 07:41:54 51°13.713 2°55.752 16.6 1.1 186 13.3
2010-03-24 07:41:59 51°13.712 2°55.752 16.3 0.9 197 -999
2010-03-24 07:42:05 51°13.711 2°55.751 16.2 0.4 199 -999
2010-03-24 07:42:10 51°13.711 2°55.751 15.6 0.4 342 -999
2010-03-24 07:42:16 51°13.713 2°55.751 12.5 1.1 354 -999
2010-03-24 07:42:21 51°13.715 2°55.75 7.7 1.6 351 -999
2010-03-24 07:42:27 51°13.718 2°55.749 0.3 2.1 344 -999
2010-03-24 07:42:32 51°13.721 2°55.747 353.6 2.6 341 -999
2010-03-24 07:42:37 51°13.725 2°55.744 347.4 3.1 335 5.2
2010-03-24 07:42:41 51°13.729 2°55.741 342.7 3.6 331 12.8
2010-03-24 07:42:46 51°13.734 2°55.737 339 4.2 329 12.8
2010-03-24 07:42:51 51°13.739 2°55.731 336.5 4.6 327 12.7
2010-03-24 07:42:56 51°13.745 2°55.725 334.5 5 326 12
2010-03-24 07:43:01 51°13.751 2°55.718 333.6 5.3 325 11.7
2010-03-24 07:43:05 51°13.756 2°55.712 333.4 5.6 327 11.4
2010-03-24 07:43:10 51°13.763 2°55.706 333.6 5.9 326 11.3
2010-03-24 07:43:15 51°13.77 2°55.698 333.9 6.2 328 11.5
2010-03-24 07:43:20 51°13.778 2°55.691 334.7 6.4 329 11.5
2010-03-24 07:43:25 51°13.785 2°55.683 335.6 6.5 328 11.5
2010-03-24 07:43:30 51°13.793 2°55.676 335.9 6.7 330 11.5
2010-03-24 07:43:35 51°13.801 2°55.668 336.4 6.9 330 11.5
2010-03-24 07:43:39 51°13.808 2°55.662 337.2 7.1 331 11.5
2010-03-24 07:43:45 51°13.819 2°55.653 338.7 7.2 332 11.5
2010-03-24 07:43:49 51°13.826 2°55.647 339.6 7.3 333 11.5
2010-03-24 07:43:54 51°13.834 2°55.638 340.3 7.3 333 11.6
2010-03-24 07:43:59 51°13.843 2°55.631 340.5 7.3 333 11.6
2010-03-24 07:44:04 51°13.853 2°55.624 341.1 7.4 334 11.5
2010-03-24 07:44:09 51°13.862 2°55.617 341.3 7.5 333 11.6
2010-03-24 07:44:13 51°13.87 2°55.611 341.1 7.7 333 11.6
2010-03-24 07:44:18 51°13.88 2°55.603 341.2 7.9 334 11.6
2010-03-24 07:44:23 51°13.89 2°55.596 342 8.1 334 11.6
2010-03-24 07:44:28 51°13.9 2°55.588 342.4 8.2 335 11.6
2010-03-24 07:44:33 51°13.911 2°55.58 342.7 8.4 335 11.6
2010-03-24 07:44:38 51°13.921 2°55.572 342.7 8.5 334 11.6
2010-03-24 07:44:43 51°13.932 2°55.564 342.3 8.6 334 11.6
2010-03-24 07:44:48 51°13.943 2°55.555 342 8.7 335 11.6
2010-03-24 07:44:53 51°13.954 2°55.548 342.9 8.7 335 11.6
2010-03-24 07:44:58 51°13.965 2°55.539 343.4 8.8 335 11.5
2010-03-24 07:45:03 51°13.976 2°55.532 343.6 8.9 336 11.6
2010-03-24 07:45:08 51°13.988 2°55.523 343.8 8.9 336 11.6
2010-03-24 07:45:13 51°13.999 2°55.516 344 8.9 337 11.7
2010-03-24 07:45:18 51°14.01 2°55.508 344.2 8.9 337 11.7
2010-03-24 07:45:23 51°14.022 2°55.501 344.8 8.9 338 11.6
2010-03-24 07:45:28 51°14.033 2°55.493 345 8.9 336 11.6
2010-03-24 07:45:33 51°14.044 2°55.485 344.8 8.9 336 11.6
2010-03-24 07:45:38 51°14.056 2°55.478 344.6 8.8 336 11.6
2010-03-24 07:45:43 51°14.067 2°55.47 343.7 8.8 334 11.6
2010-03-24 07:45:48 51°14.078 2°55.461 342.9 8.8 334 11.6
2010-03-24 07:45:53 51°14.089 2°55.452 342.8 8.8 334 11.7
2010-03-24 07:45:58 51°14.1 2°55.444 342.8 8.8 335 11.7
2010-03-24 07:46:03 51°14.111 2°55.436 343.3 8.9 336 11.8
2010-03-24 07:46:08 51°14.122 2°55.428 344.6 8.9 337 11.7
2010-03-24 07:46:13 51°14.134 2°55.421 345.2 8.8 337 11.8
2010-03-24 07:46:18 51°14.145 2°55.413 345.3 8.9 337 11.8
2010-03-24 07:46:23 51°14.156 2°55.405 344.5 8.9 335 11.8
2010-03-24 07:46:28 51°14.167 2°55.396 343.4 8.9 334 11.8
2010-03-24 07:46:33 51°14.178 2°55.387 341.9 9 332 11.8
2010-03-24 07:46:38 51°14.19 2°55.377 340.6 9.1 332 11.6
2010-03-24 07:46:43 51°14.201 2°55.368 340 9.3 331 11.8
2010-03-24 07:46:48 51°14.212 2°55.357 339.3 9.6 330 11.7
2010-03-24 07:46:53 51°14.224 2°55.346 338.3 9.8 329 11.7
2010-03-24 07:46:58 51°14.236 2°55.334 336.9 10.1 328 11.7
2010-03-24 07:47:03 51°14.248 2°55.321 335.7 10.4 327 11.8
2010-03-24 07:47:08 51°14.26 2°55.309 335.8 10.5 328 11.6
2010-03-24 07:47:13 51°14.273 2°55.297 336.5 10.7 328 11.7
2010-03-24 07:47:18 51°14.286 2°55.285 336.6 10.8 328 11.9
2010-03-24 07:47:23 51°14.298 2°55.272 336.5 10.9 328 12
2010-03-24 07:47:28 51°14.311 2°55.258 335.8 11 327 11.9
2010-03-24 07:47:33 51°14.324 2°55.245 335.4 11.1 327 11.8
2010-03-24 07:47:38 51°14.337 2°55.232 335.9 11.1 328 11.9
2010-03-24 07:47:43 51°14.35 2°55.218 336.1 11.1 328 11.9
2010-03-24 07:47:48 51°14.363 2°55.205 336.1 11.1 327 11.6
2010-03-24 07:47:53 51°14.376 2°55.192 335.9 11.2 327 11.9
2010-03-24 07:47:58 51°14.389 2°55.178 335.4 11.2 327 11.9
2010-03-24 07:48:03 51°14.402 2°55.164 334.7 11.3 326 11.7
2010-03-24 07:48:08 51°14.415 2°55.15 334.5 11.4 327 12
2010-03-24 07:48:13 51°14.428 2°55.136 334.9 11.6 327 12
2010-03-24 07:48:18 51°14.442 2°55.122 335.2 11.8 327 12.1
2010-03-24 07:48:23 51°14.456 2°55.107 335.3 11.9 327 12.2
2010-03-24 07:48:28 51°14.47 2°55.093 335.1 12.1 326 12.4
2010-03-24 07:48:33 51°14.484 2°55.077 334.9 12.2 327 12.4
2010-03-24 07:48:38 51°14.498 2°55.063 334.9 12.3 327 12.5
2010-03-24 07:48:43 51°14.513 2°55.047 334.4 12.5 325 12.4
2010-03-24 07:48:48 51°14.527 2°55.03 332.6 12.6 323 12.4
2010-03-24 07:48:53 51°14.54 2°55.013 330.8 12.7 322 13.5
2010-03-24 07:48:58 51°14.554 2°54.995 329.6 12.7 321 13.5
2010-03-24 07:49:03 51°14.568 2°54.977 328.9 12.8 320 13.4
2010-03-24 07:49:08 51°14.582 2°54.958 326.6 12.8 316 13.4
2010-03-24 07:49:13 51°14.594 2°54.938 323.3 12.8 314 13.7
2010-03-24 07:49:18 51°14.605 2°54.917 319.4 12.8 309 13.5
2010-03-24 07:49:23 51°14.616 2°54.893 314.9 12.9 305 13.2
2010-03-24 07:49:28 51°14.625 2°54.869 310 13 300 13.3
2010-03-24 07:49:33 51°14.634 2°54.843 306.4 13.1 299 13.3
2010-03-24 07:49:38 51°14.642 2°54.817 303.3 13.2 296 13.6
2010-03-24 07:49:43 51°14.649 2°54.79 300.9 13.3 294 13.5
2010-03-24 07:49:48 51°14.656 2°54.763 299 13.2 291 11.5
2010-03-24 07:49:53 51°14.661 2°54.735 295.7 13.1 288 11.4
2010-03-24 07:49:58 51°14.666 2°54.708 292.7 13 284 11.4
2010-03-24 07:50:03 51°14.668 2°54.679 287.3 12.9 277 11.5
2010-03-24 07:50:08 51°14.669 2°54.651 282.5 12.8 272 11.6
2010-03-24 07:50:13 51°14.669 2°54.623 277.4 12.8 268 11.5
2010-03-24 07:50:18 51°14.667 2°54.594 272.3 12.8 263 11.4
2010-03-24 07:50:23 51°14.663 2°54.567 267.2 12.7 257 11.4
2010-03-24 07:50:28 51°14.658 2°54.54 262.1 12.8 252 11.5
2010-03-24 07:50:33 51°14.651 2°54.514 257.3 12.8 248 11.4
2010-03-24 07:50:38 51°14.644 2°54.488 253.4 12.8 245 11.4
2010-03-24 07:50:43 51°14.635 2°54.463 249.6 12.8 242 11.4
2010-03-24 07:50:48 51°14.626 2°54.439 246.2 12.8 238 11.4
2010-03-24 07:50:53 51°14.617 2°54.416 243.9 12.8 237 11.3
2010-03-24 07:50:58 51°14.606 2°54.393 241.5 12.8 234 11.4
2010-03-24 07:51:03 51°14.596 2°54.369 240.1 12.9 236 11.3
2010-03-24 07:51:08 51°14.585 2°54.347 239.5 12.8 232 11.4
2010-03-24 07:51:13 51°14.575 2°54.324 238.7 12.8 234 11.4
2010-03-24 07:51:18 51°14.564 2°54.301 239.3 12.7 234 11.3
2010-03-24 07:51:23 51°14.554 2°54.278 239.5 12.7 235 11.4
2010-03-24 07:51:28 51°14.544 2°54.255 240 12.7 235 11.3
2010-03-24 07:51:33 51°14.534 2°54.232 240.5 12.7 236 11.3
2010-03-24 07:51:38 51°14.524 2°54.209 240.7 12.8 235 11.4
2010-03-24 07:51:43 51°14.514 2°54.185 241.2 12.8 236 11.3
2010-03-24 07:51:48 51°14.504 2°54.162 241.2 12.7 235 11.4
2010-03-24 07:51:53 51°14.494 2°54.138 241.2 12.8 236 11.3
2010-03-24 07:51:58 51°14.484 2°54.115 241.6 12.8 236 11.2
2010-03-24 07:52:03 51°14.474 2°54.091 241.8 12.8 236 11.1
2010-03-24 07:52:08 51°14.465 2°54.068 241.8 12.8 237 11
2010-03-24 07:52:13 51°14.455 2°54.044 241.9 12.7 236 11.1
2010-03-24 07:52:18 51°14.445 2°54.021 241.8 12.7 236 11.1
2010-03-24 07:52:23 51°14.435 2°53.997 241.2 12.8 235 11.1
2010-03-24 07:52:28 51°14.425 2°53.974 241.2 12.8 235 11.1
2010-03-24 07:52:33 51°14.414 2°53.951 240.3 12.8 233 11.1
2010-03-24 07:52:38 51°14.404 2°53.928 240 12.9 236 11
2010-03-24 07:52:43 51°14.393 2°53.905 239.9 12.9 233 11.1
2010-03-24 07:52:48 51°14.383 2°53.882 239.3 12.9 234 11.2
2010-03-24 07:52:53 51°14.372 2°53.859 239 12.9 233 11.1
2010-03-24 07:52:58 51°14.361 2°53.836 238.3 12.9 233 11.2
2010-03-24 07:53:03 51°14.351 2°53.813 238.1 13 233 11.1
2010-03-24 07:53:08 51°14.34 2°53.791 238 12.9 232 11.2
2010-03-24 07:53:13 51°14.329 2°53.768 237.8 12.9 233 11.1
2010-03-24 07:53:18 51°14.318 2°53.746 238 12.8 233 11.1
2010-03-24 07:53:23 51°14.307 2°53.723 238.3 12.9 234 11.1
2010-03-24 07:53:28 51°14.297 2°53.7 238.6 12.9 234 11.2
2010-03-24 07:53:33 51°14.286 2°53.677 239 12.9 233 11.1
2010-03-24 07:53:38 51°14.276 2°53.654 238.9 12.9 234 11.1
2010-03-24 07:53:43 51°14.265 2°53.631 238.8 13 233 11.2
2010-03-24 07:53:48 51°14.254 2°53.607 239 13.1 234 11.1
2010-03-24 07:53:53 51°14.243 2°53.584 239 13.1 233 11.2
2010-03-24 07:53:58 51°14.233 2°53.561 239 13.1 234 11.2
2010-03-24 07:54:03 51°14.222 2°53.538 238.9 13.1 233 11.2
2010-03-24 07:54:08 51°14.211 2°53.514 238.9 13.1 235 11.2
2010-03-24 07:54:13 51°14.201 2°53.491 239.2 13.1 234 11.2
2010-03-24 07:54:18 51°14.19 2°53.468 239.1 13 234 11.2
2010-03-24 07:54:23 51°14.179 2°53.445 238.9 13 234 11.2
2010-03-24 07:54:28 51°14.168 2°53.422 238.7 13 233 11.3
2010-03-24 07:54:33 51°14.158 2°53.398 239 13 235 11.3
2010-03-24 07:54:38 51°14.147 2°53.375 239.1 13 234 11.4
2010-03-24 07:54:43 51°14.137 2°53.352 238.9 12.9 233 11.4
2010-03-24 07:54:48 51°14.126 2°53.329 238.8 13 233 11.4
2010-03-24 07:54:53 51°14.115 2°53.306 238.2 13 234 11.5
2010-03-24 07:54:58 51°14.105 2°53.283 239 12.9 234 11.4
2010-03-24 07:55:03 51°14.094 2°53.26 238.6 13 233 11.5
2010-03-24 07:55:08 51°14.083 2°53.237 238.5 13 233 11.5
2010-03-24 07:55:13 51°14.072 2°53.214 238.4 13 234 11.5
2010-03-24 07:55:18 51°14.062 2°53.19 239.4 13 236 11.6
2010-03-24 07:55:23 51°14.053 2°53.166 240.7 13 237 11.6
2010-03-24 07:55:28 51°14.043 2°53.142 241.8 13 238 11.6
2010-03-24 07:55:33 51°14.034 2°53.117 242.5 13 239 11.6
2010-03-24 07:55:38 51°14.024 2°53.092 243 13 239 11.6
2010-03-24 07:55:43 51°14.015 2°53.068 243.7 13 240 11.7
2010-03-24 07:55:48 51°14.006 2°53.043 244.3 13 240 11.7
2010-03-24 07:55:53 51°13.997 2°53.018 244.5 13 240 11.7
2010-03-24 07:55:58 51°13.988 2°52.993 244.5 13 241 11.7
2010-03-24 07:56:03 51°13.979 2°52.968 244.9 13 240 11.7
2010-03-24 07:56:08 51°13.97 2°52.943 244.9 13 241 11.8
2010-03-24 07:56:13 51°13.961 2°52.918 244.9 13 240 11.8
2010-03-24 07:56:18 51°13.952 2°52.894 244.7 13 240 11.7
2010-03-24 07:56:23 51°13.943 2°52.869 244.2 13 239 11.8
2010-03-24 07:56:28 51°13.934 2°52.844 244.3 13 241 11.8
2010-03-24 07:56:33 51°13.925 2°52.819 244.7 13 240 11.7
2010-03-24 07:56:38 51°13.916 2°52.795 244.6 13 240 11.8
2010-03-24 07:56:43 51°13.907 2°52.77 244.6 13 240 11.8
2010-03-24 07:56:48 51°13.898 2°52.745 244.8 13 241 11.9
2010-03-24 07:56:53 51°13.889 2°52.72 244.8 13 241 11.9
2010-03-24 07:56:58 51°13.88 2°52.695 244.8 13 240 11.9
2010-03-24 07:57:03 51°13.871 2°52.67 245 13 241 11.9
2010-03-24 07:57:08 51°13.862 2°52.645 245.1 13 240 11.9
2010-03-24 07:57:13 51°13.853 2°52.62 244.7 13 241 11.9
2010-03-24 07:57:18 51°13.844 2°52.595 244.7 13 240 11.9
2010-03-24 07:57:23 51°13.835 2°52.57 244.8 13 240 11.9
2010-03-24 07:57:28 51°13.826 2°52.545 244.7 13 240 11.9
2010-03-24 07:57:33 51°13.817 2°52.52 244.4 13 240 12
2010-03-24 07:57:38 51°13.808 2°52.495 244.3 13 240 11.9
2010-03-24 07:57:43 51°13.799 2°52.471 244 13 240 12
2010-03-24 07:57:48 51°13.79 2°52.446 244.3 13 240 12
2010-03-24 07:57:53 51°13.781 2°52.421 244.6 13 240 12.1
2010-03-24 07:57:58 51°13.772 2°52.396 244.6 13.1 241 12.1
2010-03-24 07:58:03 51°13.763 2°52.371 244.7 13 240 12.1
2010-03-24 07:58:08 51°13.754 2°52.346 244.5 13 240 12
2010-03-24 07:58:13 51°13.745 2°52.321 244.1 13 240 12
2010-03-24 07:58:18 51°13.735 2°52.296 244.3 13 240 12.1
2010-03-24 07:58:23 51°13.726 2°52.271 244.1 13.1 240 12
2010-03-24 07:58:28 51°13.717 2°52.246 244.3 13.1 241 12
2010-03-24 07:58:33 51°13.709 2°52.221 244.9 13.1 240 12
2010-03-24 07:58:38 51°13.699 2°52.196 244.7 13.1 240 12.1
2010-03-24 07:58:43 51°13.691 2°52.171 244.7 13.1 240 12
2010-03-24 07:58:48 51°13.681 2°52.146 244.6 13.1 240 12
2010-03-24 07:58:53 51°13.672 2°52.121 244.3 13.1 241 12
2010-03-24 07:58:58 51°13.663 2°52.096 244.7 13.1 239 12.1
2010-03-24 07:59:03 51°13.654 2°52.07 244.6 13.1 241 12.1
2010-03-24 07:59:08 51°13.645 2°52.045 244.7 13.1 240 12
2010-03-24 07:59:13 51°13.636 2°52.02 244.7 13.1 240 12.1
2010-03-24 07:59:18 51°13.627 2°51.995 244.8 13.1 240 12.1
2010-03-24 07:59:23 51°13.618 2°51.97 244.7 13.2 240 12.1
2010-03-24 07:59:28 51°13.609 2°51.945 244.5 13.2 240 12.2
2010-03-24 07:59:33 51°13.6 2°51.919 244.3 13.2 240 12.1
2010-03-24 07:59:38 51°13.591 2°51.894 244.5 13.2 240 12.1
2010-03-24 07:59:43 51°13.582 2°51.869 244.5 13.2 241 12.2
2010-03-24 07:59:48 51°13.572 2°51.844 244.5 13.2 239 12.1
2010-03-24 07:59:53 51°13.563 2°51.819 244.1 13.2 240 12.2
2010-03-24 07:59:58 51°13.554 2°51.793 244.3 13.2 240 12.2
2010-03-24 08:00:03 51°13.545 2°51.768 244.6 13.2 240 12.2
2010-03-24 08:00:08 51°13.536 2°51.743 244.4 13.2 240 12.2
2010-03-24 08:00:13 51°13.527 2°51.717 244.4 13.2 240 12.3
2010-03-24 08:00:18 51°13.518 2°51.692 244.2 13.2 241 12.2
2010-03-24 08:00:23 51°13.509 2°51.667 244.3 13.2 240 12.3
2010-03-24 08:00:28 51°13.5 2°51.641 244.5 13.2 240 12.2
2010-03-24 08:00:33 51°13.491 2°51.616 244.3 13.1 240 12.3
2010-03-24 08:00:38 51°13.482 2°51.591 244.2 13.2 240 12.2
2010-03-24 08:00:43 51°13.473 2°51.565 244.1 13.2 241 12.3
2010-03-24 08:00:48 51°13.464 2°51.54 244.7 13.2 240 12.3
2010-03-24 08:00:53 51°13.455 2°51.515 244.4 13.2 240 12.3
2010-03-24 08:00:58 51°13.446 2°51.489 244.2 13.2 241 12.3
2010-03-24 08:01:03 51°13.437 2°51.464 244.6 13.2 241 12.4
2010-03-24 08:01:08 51°13.428 2°51.438 244.4 13.1 241 12.3
2010-03-24 08:01:13 51°13.419 2°51.413 244.5 13.2 240 12.3
2010-03-24 08:01:18 51°13.41 2°51.388 244.4 13.2 241 12.4
2010-03-24 08:01:23 51°13.401 2°51.362 244.4 13.2 241 12.3
2010-03-24 08:01:28 51°13.392 2°51.337 244.1 13.2 240 12.4
2010-03-24 08:01:33 51°13.383 2°51.311 244.1 13.2 241 12.4
2010-03-24 08:01:38 51°13.374 2°51.286 244.3 13.2 240 12.3
2010-03-24 08:01:43 51°13.365 2°51.26 244.3 13.2 241 12.4
2010-03-24 08:01:48 51°13.356 2°51.235 244.3 13.3 241 12.4
2010-03-24 08:01:53 51°13.347 2°51.21 244.3 13.2 241 12.4
2010-03-24 08:01:58 51°13.338 2°51.184 244.2 13.3 240 12.4
2010-03-24 08:02:03 51°13.329 2°51.159 243.9 13.2 241 12.5
2010-03-24 08:02:08 51°13.32 2°51.133 244.1 13.2 240 12.4
2010-03-24 08:02:13 51°13.311 2°51.108 244 13.2 241 12.5
2010-03-24 08:02:18 51°13.302 2°51.082 244 13.2 241 12.5
2010-03-24 08:02:23 51°13.293 2°51.057 244 13.2 241 12.6
2010-03-24 08:02:28 51°13.284 2°51.031 244 13.2 240 12.5
2010-03-24 08:02:33 51°13.274 2°51.006 243.7 13.3 240 12.5
2010-03-24 08:02:38 51°13.266 2°50.98 244 13.3 242 12.5
2010-03-24 08:02:43 51°13.257 2°50.955 244.7 13.2 240 12.5
2010-03-24 08:02:48 51°13.248 2°50.93 244.1 13.2 241 12.5
2010-03-24 08:02:53 51°13.239 2°50.904 244.2 13.2 241 12.5
2010-03-24 08:02:58 51°13.23 2°50.879 244 13.3 240 12.6
2010-03-24 08:03:03 51°13.221 2°50.853 243.9 13.3 241 12.5
2010-03-24 08:03:08 51°13.212 2°50.827 244 13.3 241 12.5
2010-03-24 08:03:13 51°13.203 2°50.802 244.2 13.2 241 12.5
2010-03-24 08:03:18 51°13.194 2°50.776 244.2 13.3 241 12.6
2010-03-24 08:03:23 51°13.185 2°50.751 244.2 13.2 241 12.5
2010-03-24 08:03:28 51°13.176 2°50.725 244.3 13.3 240 12.6
2010-03-24 08:03:33 51°13.167 2°50.7 244 13.3 242 12.5
2010-03-24 08:03:38 51°13.158 2°50.674 244.3 13.3 241 12.6
2010-03-24 08:03:43 51°13.149 2°50.648 244.3 13.2 241 12.6
2010-03-24 08:03:48 51°13.14 2°50.623 243.9 13.3 240 12.6
2010-03-24 08:03:53 51°13.131 2°50.597 243.8 13.3 241 12.6
2010-03-24 08:03:58 51°13.122 2°50.572 244 13.2 241 12.6
2010-03-24 08:04:03 51°13.113 2°50.546 244.2 13.3 241 12.7
2010-03-24 08:04:08 51°13.104 2°50.52 244 13.3 242 12.6
2010-03-24 08:04:13 51°13.095 2°50.495 244.4 13.2 241 12.6
2010-03-24 08:04:18 51°13.086 2°50.469 244.2 13.3 241 12.7
2010-03-24 08:04:23 51°13.078 2°50.444 244.2 13.2 241 12.7
2010-03-24 08:04:28 51°13.069 2°50.418 244.2 13.2 241 12.6
2010-03-24 08:04:33 51°13.06 2°50.393 243.7 13.3 241 12.8
2010-03-24 08:04:38 51°13.051 2°50.367 244 13.3 241 12.7
2010-03-24 08:04:43 51°13.042 2°50.341 244.4 13.2 242 12.8
2010-03-24 08:04:48 51°13.033 2°50.316 244.4 13.2 241 12.7
2010-03-24 08:04:53 51°13.025 2°50.29 244.3 13.3 241 12.8
2010-03-24 08:04:58 51°13.016 2°50.264 244.3 13.2 242 12.8
2010-03-24 08:05:03 51°13.007 2°50.239 244.4 13.2 241 12.8
2010-03-24 08:05:08 51°12.998 2°50.213 244.2 13.3 241 12.8
2010-03-24 08:05:13 51°12.989 2°50.187 244.2 13.3 242 12.9
2010-03-24 08:05:18 51°12.981 2°50.161 244.5 13.3 242 12.8
2010-03-24 08:05:23 51°12.972 2°50.136 244.7 13.2 242 12.8
2010-03-24 08:05:28 51°12.963 2°50.11 244.6 13.3 241 12.8
2010-03-24 08:05:33 51°12.954 2°50.084 244.4 13.3 242 12.8
2010-03-24 08:05:38 51°12.946 2°50.058 244.6 13.3 242 12.9
2010-03-24 08:05:43 51°12.937 2°50.032 244.6 13.2 242 12.8
2010-03-24 08:05:48 51°12.928 2°50.007 244.2 13.3 241 12.9
2010-03-24 08:05:53 51°12.92 2°49.981 244.4 13.3 242 12.9
2010-03-24 08:05:57 51°12.913 2°49.96 244.4 13.2 242 12.9
2010-03-24 08:06:03 51°12.902 2°49.929 244.4 13.3 242 12.8
2010-03-24 08:06:08 51°12.894 2°49.904 244.2 13.3 242 12.9
2010-03-24 08:06:13 51°12.885 2°49.878 244.3 13.3 241 13
2010-03-24 08:06:18 51°12.876 2°49.852 244.2 13.3 242 12.9
2010-03-24 08:06:23 51°12.868 2°49.826 244.2 13.3 242 12.9
2010-03-24 08:06:28 51°12.859 2°49.8 244.5 13.2 242 13
2010-03-24 08:06:33 51°12.85 2°49.775 244.1 13.3 241 13
2010-03-24 08:06:38 51°12.842 2°49.749 244 13.3 242 13
2010-03-24 08:06:43 51°12.833 2°49.723 244 13.3 242 13
2010-03-24 08:06:48 51°12.824 2°49.697 244 13.3 242 13
2010-03-24 08:06:53 51°12.816 2°49.671 244.4 13.3 242 13
2010-03-24 08:06:58 51°12.807 2°49.645 244.4 13.3 242 13
2010-03-24 08:07:03 51°12.798 2°49.619 244.5 13.3 242 13.1
2010-03-24 08:07:08 51°12.79 2°49.593 244.4 13.3 243 13
2010-03-24 08:07:13 51°12.781 2°49.567 244.5 13.3 242 13.1
2010-03-24 08:07:18 51°12.773 2°49.541 244.6 13.3 243 13.1
2010-03-24 08:07:23 51°12.764 2°49.515 244.7 13.3 243 13.1
2010-03-24 08:07:28 51°12.756 2°49.489 244.7 13.3 242 13.1
2010-03-24 08:07:33 51°12.747 2°49.463 244.7 13.3 242 13.1
2010-03-24 08:07:38 51°12.738 2°49.437 244.1 13.3 242 13.1
2010-03-24 08:07:43 51°12.73 2°49.411 244.3 13.3 242 13.2
2010-03-24 08:07:48 51°12.721 2°49.386 244.2 13.3 242 13.2
2010-03-24 08:07:53 51°12.713 2°49.359 244.2 13.3 242 13.2
2010-03-24 08:07:58 51°12.704 2°49.333 244.5 13.3 243 13.2
2010-03-24 08:08:03 51°12.696 2°49.307 244.6 13.3 242 13.2
2010-03-24 08:08:08 51°12.687 2°49.281 244.4 13.4 243 13.2
2010-03-24 08:08:13 51°12.679 2°49.255 244.5 13.3 242 13.2
2010-03-24 08:08:18 51°12.67 2°49.229 244.5 13.3 242 13.2
2010-03-24 08:08:23 51°12.662 2°49.203 244.1 13.3 242 13.2
2010-03-24 08:08:28 51°12.653 2°49.177 244.1 13.3 242 13.3
2010-03-24 08:08:33 51°12.645 2°49.151 244 13.3 242 13.3
2010-03-24 08:08:38 51°12.636 2°49.126 244 13.3 241 13.3
2010-03-24 08:08:43 51°12.627 2°49.099 243.9 13.4 243 13.2
2010-03-24 08:08:48 51°12.619 2°49.074 244.3 13.3 242 13.3
2010-03-24 08:08:53 51°12.61 2°49.047 244.3 13.3 243 13.4
2010-03-24 08:08:58 51°12.602 2°49.021 244.3 13.3 242 13.3
2010-03-24 08:09:03 51°12.593 2°48.995 244.3 13.3 243 13.3
2010-03-24 08:09:08 51°12.585 2°48.969 244.4 13.3 242 13.3
2010-03-24 08:09:13 51°12.576 2°48.943 244.4 13.4 243 13.5
2010-03-24 08:09:18 51°12.568 2°48.917 244.7 13.3 243 13.4
2010-03-24 08:09:23 51°12.559 2°48.891 244.7 13.3 243 13.4
2010-03-24 08:09:28 51°12.551 2°48.864 244.3 13.3 243 13.4
2010-03-24 08:09:33 51°12.543 2°48.838 244.4 13.3 243 13.3
2010-03-24 08:09:38 51°12.534 2°48.812 244.1 13.3 243 13.5
2010-03-24 08:09:43 51°12.526 2°48.786 244.3 13.3 243 13.4
2010-03-24 08:09:48 51°12.517 2°48.76 244.3 13.4 243 13.5
2010-03-24 08:09:53 51°12.509 2°48.733 244.3 13.4 243 13.4
2010-03-24 08:09:58 51°12.5 2°48.707 244.4 13.3 243 13.4
2010-03-24 08:10:03 51°12.492 2°48.681 244.2 13.4 243 13.4
2010-03-24 08:10:08 51°12.483 2°48.655 244 13.4 243 13.5
2010-03-24 08:10:13 51°12.475 2°48.628 244 13.4 243 13.4
2010-03-24 08:10:18 51°12.466 2°48.602 243.8 13.4 243 13.5
2010-03-24 08:10:23 51°12.458 2°48.576 244.1 13.4 243 13.4
2010-03-24 08:10:28 51°12.449 2°48.549 244.2 13.4 244 13.4
2010-03-24 08:10:33 51°12.441 2°48.523 244.4 13.4 244 13.5
2010-03-24 08:10:37 51°12.434 2°48.502 244.6 13.4 243 13.5
2010-03-24 08:10:43 51°12.424 2°48.47 244.2 13.4 243 13.6
2010-03-24 08:10:48 51°12.416 2°48.444 244.1 13.5 243 13.6
2010-03-24 08:10:53 51°12.407 2°48.417 243.9 13.4 243 13.5
2010-03-24 08:10:58 51°12.399 2°48.391 244 13.4 243 13.4
2010-03-24 08:11:03 51°12.39 2°48.364 244 13.5 243 13.6
2010-03-24 08:11:08 51°12.382 2°48.337 244.6 13.5 243 13.6
2010-03-24 08:11:13 51°12.374 2°48.311 244.5 13.4 243 13.7
2010-03-24 08:11:18 51°12.366 2°48.285 244.2 13.4 244 13.6
2010-03-24 08:11:23 51°12.357 2°48.258 244.3 13.5 243 13.6
2010-03-24 08:11:28 51°12.348 2°48.232 244 13.5 244 13.7
2010-03-24 08:11:33 51°12.34 2°48.205 244.1 13.4 243 13.7
2010-03-24 08:11:38 51°12.332 2°48.179 244.2 13.5 243 13.7
2010-03-24 08:11:43 51°12.324 2°48.152 244.7 13.5 244 13.7
2010-03-24 08:11:48 51°12.315 2°48.125 244.4 13.5 243 13.6
2010-03-24 08:11:53 51°12.307 2°48.099 244.4 13.5 244 13.7
2010-03-24 08:11:58 51°12.298 2°48.072 244.4 13.5 244 13.7
2010-03-24 08:12:03 51°12.29 2°48.045 244.4 13.5 244 13.8
2010-03-24 08:12:08 51°12.282 2°48.019 244.4 13.5 244 13.7
2010-03-24 08:12:13 51°12.273 2°47.992 244.3 13.4 243 13.8
2010-03-24 08:12:18 51°12.265 2°47.966 244.1 13.4 244 13.7
2010-03-24 08:12:23 51°12.257 2°47.939 244.3 13.5 243 13.7
2010-03-24 08:12:28 51°12.249 2°47.913 244.3 13.5 244 13.7
2010-03-24 08:12:33 51°12.24 2°47.886 244.5 13.5 243 13.7
2010-03-24 08:12:38 51°12.232 2°47.859 244.2 13.5 243 13.8
2010-03-24 08:12:43 51°12.223 2°47.833 244.2 13.5 244 13.8
2010-03-24 08:12:48 51°12.215 2°47.806 244.3 13.5 243 13.8
2010-03-24 08:12:53 51°12.207 2°47.78 243.8 13.5 243 13.8
2010-03-24 08:12:58 51°12.198 2°47.753 244.2 13.5 244 13.8
2010-03-24 08:13:03 51°12.19 2°47.726 244.2 13.5 244 13.8
2010-03-24 08:13:08 51°12.182 2°47.699 244.2 13.5 244 13.8
2010-03-24 08:13:13 51°12.173 2°47.673 244.4 13.5 243 13.9
2010-03-24 08:13:18 51°12.165 2°47.646 244.4 13.5 244 13.8
2010-03-24 08:13:23 51°12.157 2°47.619 244.4 13.5 243 13.9
2010-03-24 08:13:28 51°12.149 2°47.592 244.1 13.5 244 13.9
2010-03-24 08:13:33 51°12.14 2°47.566 244.2 13.5 244 13.9
2010-03-24 08:13:38 51°12.132 2°47.539 244.6 13.5 244 13.9
2010-03-24 08:13:43 51°12.124 2°47.512 244.6 13.5 244 13.8
2010-03-24 08:13:48 51°12.116 2°47.486 244.4 13.5 244 13.9
2010-03-24 08:13:53 51°12.107 2°47.459 244.4 13.6 244 13.9
2010-03-24 08:13:58 51°12.099 2°47.432 244.4 13.5 244 13.9
2010-03-24 08:14:03 51°12.09 2°47.405 244.3 13.5 243 13.9
2010-03-24 08:14:08 51°12.082 2°47.378 244 13.6 245 13.9
2010-03-24 08:14:13 51°12.074 2°47.351 244.4 13.6 244 13.9
2010-03-24 08:14:18 51°12.066 2°47.325 244.3 13.5 244 13.9
2010-03-24 08:14:23 51°12.058 2°47.298 244.1 13.5 244 13.9
2010-03-24 08:14:28 51°12.049 2°47.271 244.3 13.6 244 13.9
2010-03-24 08:14:33 51°12.041 2°47.244 244.3 13.6 245 13.9
2010-03-24 08:14:38 51°12.033 2°47.217 244.6 13.5 244 13.9
2010-03-24 08:14:43 51°12.025 2°47.19 244.4 13.5 244 13.9
2010-03-24 08:14:48 51°12.017 2°47.163 244.1 13.5 245 13.9
2010-03-24 08:14:53 51°12.009 2°47.136 244.3 13.5 244 13.9
2010-03-24 08:14:58 51°12 2°47.11 244.3 13.5 244 13.9
2010-03-24 08:15:03 51°11.992 2°47.083 244.1 13.5 244 13.9
2010-03-24 08:15:08 51°11.984 2°47.056 244.2 13.5 244 13.9
2010-03-24 08:15:13 51°11.976 2°47.03 244.1 13.5 244 13.9
2010-03-24 08:15:18 51°11.967 2°47.003 244 13.5 244 13.9
2010-03-24 08:15:23 51°11.959 2°46.976 244 13.5 244 14
2010-03-24 08:15:28 51°11.951 2°46.949 244 13.5 244 13.9
2010-03-24 08:15:33 51°11.943 2°46.922 244.2 13.5 244 13.9
2010-03-24 08:15:38 51°11.935 2°46.895 244.2 13.5 244 14
2010-03-24 08:15:43 51°11.927 2°46.868 244.2 13.5 245 13.9
2010-03-24 08:15:48 51°11.919 2°46.842 244.6 13.5 244 14
2010-03-24 08:15:53 51°11.911 2°46.815 244.4 13.5 244 13.9
2010-03-24 08:15:58 51°11.902 2°46.788 244 13.5 245 13.9
2010-03-24 08:16:03 51°11.894 2°46.761 244.3 13.5 244 13.9
2010-03-24 08:16:08 51°11.886 2°46.734 244.3 13.5 245 13.9
2010-03-24 08:16:13 51°11.878 2°46.708 244.2 13.5 244 14
2010-03-24 08:16:18 51°11.87 2°46.681 244.2 13.5 245 13.9
2010-03-24 08:16:23 51°11.862 2°46.655 244 13.5 244 13.9
2010-03-24 08:16:28 51°11.853 2°46.628 243.9 13.5 244 13.9
2010-03-24 08:16:33 51°11.846 2°46.601 244.2 13.5 245 14
2010-03-24 08:16:37 51°11.839 2°46.579 244.3 13.5 244 14
2010-03-24 08:16:43 51°11.83 2°46.547 244.4 13.5 246 14
2010-03-24 08:16:48 51°11.821 2°46.52 244.8 13.5 244 14
2010-03-24 08:16:53 51°11.813 2°46.493 244.5 13.5 245 14
2010-03-24 08:16:58 51°11.805 2°46.466 244.4 13.5 245 14
2010-03-24 08:17:03 51°11.797 2°46.439 244.6 13.5 245 14
2010-03-24 08:17:08 51°11.789 2°46.412 244.5 13.5 245 14
2010-03-24 08:17:13 51°11.781 2°46.385 244.4 13.6 245 14
2010-03-24 08:17:17 51°11.775 2°46.363 244.4 13.6 245 14
2010-03-24 08:17:23 51°11.765 2°46.331 244.7 13.6 244 14
2010-03-24 08:17:28 51°11.757 2°46.304 244.4 13.6 245 13.9
2010-03-24 08:17:33 51°11.749 2°46.277 244.1 13.7 244 14
2010-03-24 08:17:38 51°11.74 2°46.25 244.2 13.6 245 14
2010-03-24 08:17:43 51°11.733 2°46.223 244.3 13.6 245 14
2010-03-24 08:17:48 51°11.724 2°46.196 244.4 13.6 245 13.9
2010-03-24 08:17:53 51°11.716 2°46.169 244.1 13.7 244 14
2010-03-24 08:17:58 51°11.708 2°46.142 244.1 13.6 244 13.9
2010-03-24 08:18:03 51°11.7 2°46.115 244 13.6 244 13.9
2010-03-24 08:18:08 51°11.692 2°46.087 243.8 13.6 245 13.8
2010-03-24 08:18:13 51°11.683 2°46.06 244 13.6 244 13.9
2010-03-24 08:18:18 51°11.676 2°46.033 244.2 13.6 245 13.8
2010-03-24 08:18:23 51°11.667 2°46.006 244 13.6 245 13.9
2010-03-24 08:18:28 51°11.66 2°45.979 244.4 13.5 245 13.8
2010-03-24 08:18:33 51°11.651 2°45.952 244.3 13.6 244 13.8
2010-03-24 08:18:38 51°11.644 2°45.924 244 13.6 245 13.9
2010-03-24 08:18:43 51°11.636 2°45.897 244.2 13.6 245 13.9
2010-03-24 08:18:48 51°11.628 2°45.87 244.4 13.6 246 13.7
2010-03-24 08:18:53 51°11.62 2°45.843 244.6 13.6 245 13.8
2010-03-24 08:18:57 51°11.614 2°45.821 244.6 13.6 245 13.8
2010-03-24 08:19:03 51°11.604 2°45.789 244.4 13.5 245 13.8
2010-03-24 08:19:08 51°11.596 2°45.761 244 13.6 245 13.7
2010-03-24 08:19:13 51°11.588 2°45.734 244.2 13.6 245 13.8
2010-03-24 08:19:18 51°11.58 2°45.707 244.6 13.6 246 13.8
2010-03-24 08:19:23 51°11.572 2°45.68 244.6 13.6 245 13.7
2010-03-24 08:19:28 51°11.564 2°45.653 244.4 13.5 245 13.7
2010-03-24 08:19:33 51°11.556 2°45.626 244 13.6 245 13.7
2010-03-24 08:19:38 51°11.548 2°45.598 243.9 13.5 245 13.7
2010-03-24 08:19:43 51°11.54 2°45.571 243.9 13.5 245 13.7
2010-03-24 08:19:48 51°11.532 2°45.544 243.8 13.5 246 13.7
2010-03-24 08:19:53 51°11.524 2°45.517 244 13.5 245 13.6
2010-03-24 08:19:58 51°11.517 2°45.49 244 13.6 246 13.7
2010-03-24 08:20:03 51°11.509 2°45.463 244.3 13.6 245 13.7
2010-03-24 08:20:08 51°11.501 2°45.435 244.3 13.5 246 13.7
2010-03-24 08:20:13 51°11.493 2°45.408 244.5 13.5 245 13.6
2010-03-24 08:20:18 51°11.485 2°45.381 244.5 13.6 246 13.6
2010-03-24 08:20:23 51°11.478 2°45.354 244.5 13.6 245 13.6
2010-03-24 08:20:28 51°11.47 2°45.326 244.5 13.5 246 13.6
2010-03-24 08:20:33 51°11.462 2°45.299 244.7 13.5 246 13.5
2010-03-24 08:20:38 51°11.454 2°45.272 244.4 13.6 245 13.6
2010-03-24 08:20:43 51°11.447 2°45.244 244.6 13.6 247 13.6
2010-03-24 08:20:48 51°11.439 2°45.217 244.5 13.5 245 13.5
2010-03-24 08:20:53 51°11.431 2°45.19 244.2 13.5 246 13.5
2010-03-24 08:20:58 51°11.423 2°45.163 244 13.6 245 13.5
2010-03-24 08:21:03 51°11.415 2°45.135 243.8 13.6 245 13.5
2010-03-24 08:21:08 51°11.407 2°45.108 244.2 13.6 246 13.5
2010-03-24 08:21:13 51°11.4 2°45.081 244.2 13.6 246 13.5
2010-03-24 08:21:18 51°11.392 2°45.053 244.4 13.6 246 13.5
2010-03-24 08:21:23 51°11.384 2°45.026 244.7 13.6 246 13.4
2010-03-24 08:21:28 51°11.376 2°44.998 244.6 13.6 246 13.5
2010-03-24 08:21:33 51°11.369 2°44.971 244.6 13.6 247 13.5
2010-03-24 08:21:38 51°11.361 2°44.944 244.4 13.6 245 13.4
2010-03-24 08:21:43 51°11.354 2°44.916 244.4 13.6 246 13.4
2010-03-24 08:21:48 51°11.345 2°44.889 244.3 13.6 245 13.4
2010-03-24 08:21:53 51°11.338 2°44.861 244 13.6 246 13.4
2010-03-24 08:21:58 51°11.33 2°44.834 244 13.6 245 13.4
2010-03-24 08:22:03 51°11.322 2°44.807 244 13.6 245 13.4
2010-03-24 08:22:08 51°11.314 2°44.779 244 13.6 246 13.3
2010-03-24 08:22:13 51°11.306 2°44.752 244.2 13.6 245 13.3
2010-03-24 08:22:18 51°11.299 2°44.725 243.9 13.6 246 13.3
2010-03-24 08:22:23 51°11.291 2°44.697 244.2 13.6 246 13.4
2010-03-24 08:22:28 51°11.283 2°44.67 244.2 13.6 246 13.3
2010-03-24 08:22:33 51°11.276 2°44.643 244.2 13.6 246 13.3
2010-03-24 08:22:38 51°11.268 2°44.615 244.4 13.6 246 13.3
2010-03-24 08:22:43 51°11.261 2°44.588 244.5 13.6 246 13.3
2010-03-24 08:22:48 51°11.253 2°44.561 244.3 13.5 246 13.2
2010-03-24 08:22:53 51°11.245 2°44.533 244 13.6 246 13.2
2010-03-24 08:22:58 51°11.237 2°44.506 243.8 13.6 246 13.2
2010-03-24 08:23:03 51°11.23 2°44.479 244 13.6 246 13.2
2010-03-24 08:23:08 51°11.222 2°44.451 244 13.5 246 13.1
2010-03-24 08:23:13 51°11.214 2°44.424 244 13.6 247 13.1
2010-03-24 08:23:18 51°11.207 2°44.396 244.4 13.6 246 13.2
2010-03-24 08:23:23 51°11.199 2°44.369 244.5 13.6 247 13.2
2010-03-24 08:23:28 51°11.192 2°44.341 244.9 13.5 247 13.1
2010-03-24 08:23:33 51°11.184 2°44.314 244.7 13.6 246 13.1
2010-03-24 08:23:38 51°11.177 2°44.286 244.4 13.6 247 13.2
2010-03-24 08:23:43 51°11.169 2°44.259 244.2 13.6 246 13.1
2010-03-24 08:23:48 51°11.162 2°44.231 244.2 13.6 247 13.1
2010-03-24 08:23:53 51°11.154 2°44.204 244.6 13.6 246 13.1
2010-03-24 08:23:58 51°11.146 2°44.176 244.3 13.6 246 13.1
2010-03-24 08:24:03 51°11.139 2°44.148 244.2 13.7 247 13.1
2010-03-24 08:24:08 51°11.131 2°44.121 244.3 13.6 247 13.1
2010-03-24 08:24:13 51°11.124 2°44.093 244.4 13.6 247 13
2010-03-24 08:24:18 51°11.116 2°44.066 244.4 13.7 247 13
2010-03-24 08:24:23 51°11.109 2°44.038 244.4 13.7 246 13
2010-03-24 08:24:28 51°11.101 2°44.01 244.4 13.6 247 13
2010-03-24 08:24:33 51°11.094 2°43.983 244.4 13.6 247 12.9
2010-03-24 08:24:38 51°11.086 2°43.955 244.4 13.6 246 12.9
2010-03-24 08:24:43 51°11.078 2°43.928 244.2 13.6 245 13
2010-03-24 08:24:48 51°11.07 2°43.9 244 13.7 246 12.9
2010-03-24 08:24:53 51°11.063 2°43.873 244 13.6 246 12.9
2010-03-24 08:24:58 51°11.055 2°43.846 244.3 13.6 246 12.9
2010-03-24 08:25:03 51°11.048 2°43.818 244.6 13.6 247 12.9
2010-03-24 08:25:08 51°11.04 2°43.791 244.7 13.6 246 12.9
2010-03-24 08:25:13 51°11.033 2°43.763 244.7 13.6 247 12.9
2010-03-24 08:25:18 51°11.025 2°43.735 244.4 13.6 246 12.8
2010-03-24 08:25:23 51°11.017 2°43.708 244.4 13.6 247 12.9
2010-03-24 08:25:28 51°11.01 2°43.68 244.5 13.5 246 12.8
2010-03-24 08:25:33 51°11.002 2°43.653 244.2 13.6 246 12.9
2010-03-24 08:25:38 51°10.994 2°43.626 244.1 13.6 247 12.8
2010-03-24 08:25:43 51°10.987 2°43.598 244.3 13.5 245 12.8
2010-03-24 08:25:48 51°10.98 2°43.571 244.7 13.5 250 12.7
2010-03-24 08:25:53 51°10.973 2°43.543 246.2 13.5 248 12.8
2010-03-24 08:25:57 51°10.967 2°43.52 246.8 13.6 250 12.8
2010-03-24 08:26:03 51°10.96 2°43.486 248 13.6 251 12.7
2010-03-24 08:26:08 51°10.953 2°43.458 248.3 13.6 251 12.7
2010-03-24 08:26:13 51°10.948 2°43.43 249 13.5 252 12.8
2010-03-24 08:26:18 51°10.941 2°43.401 249.2 13.6 251 12.8
2010-03-24 08:26:23 51°10.936 2°43.373 249.2 13.6 252 12.8
2010-03-24 08:26:28 51°10.93 2°43.344 249.9 13.6 251 12.8
2010-03-24 08:26:33 51°10.924 2°43.316 249.9 13.6 252 12.8
2010-03-24 08:26:38 51°10.918 2°43.287 250.1 13.6 252 12.8
2010-03-24 08:26:43 51°10.912 2°43.259 250 13.6 253 12.8
2010-03-24 08:26:48 51°10.906 2°43.23 250.4 13.6 252 12.8
2010-03-24 08:26:53 51°10.9 2°43.202 250.3 13.6 252 12.8
2010-03-24 08:26:58 51°10.895 2°43.173 250.2 13.6 252 12.8
2010-03-24 08:27:03 51°10.889 2°43.145 250.2 13.6 252 12.7
2010-03-24 08:27:08 51°10.883 2°43.116 250.3 13.6 253 12.8
2010-03-24 08:27:13 51°10.877 2°43.087 250.5 13.6 251 12.8
2010-03-24 08:27:18 51°10.872 2°43.059 250.3 13.6 253 12.7
2010-03-24 08:27:23 51°10.865 2°43.031 250 13.6 251 12.7
2010-03-24 08:27:28 51°10.86 2°43.002 249.7 13.6 252 12.7
2010-03-24 08:27:33 51°10.853 2°42.973 249.5 13.6 251 12.8
2010-03-24 08:27:38 51°10.848 2°42.945 249.5 13.6 252 12.8
2010-03-24 08:27:43 51°10.841 2°42.917 249.5 13.6 251 12.8
2010-03-24 08:27:48 51°10.836 2°42.888 249.4 13.6 252 12.8
2010-03-24 08:27:53 51°10.829 2°42.86 249.6 13.6 252 12.7
2010-03-24 08:27:57 51°10.825 2°42.837 249.6 13.6 251 12.8
2010-03-24 08:28:03 51°10.817 2°42.802 249.5 13.6 252 12.8
2010-03-24 08:28:08 51°10.811 2°42.774 249.5 13.6 251 12.8
2010-03-24 08:28:13 51°10.805 2°42.745 249.4 13.6 252 12.8
2010-03-24 08:28:18 51°10.799 2°42.717 249.6 13.6 252 12.9
2010-03-24 08:28:23 51°10.794 2°42.688 249.7 13.6 252 12.7
2010-03-24 08:28:28 51°10.788 2°42.66 249.8 13.7 252 12.8
2010-03-24 08:28:33 51°10.782 2°42.631 249.7 13.7 252 12.8
2010-03-24 08:28:38 51°10.776 2°42.602 249.7 13.7 252 12.8
2010-03-24 08:28:43 51°10.77 2°42.573 249.6 13.7 252 12.7
2010-03-24 08:28:48 51°10.764 2°42.545 249.3 13.7 252 12.8
2010-03-24 08:28:53 51°10.758 2°42.516 249.8 13.6 252 12.7
2010-03-24 08:28:58 51°10.752 2°42.488 249.3 13.7 251 12.7
2010-03-24 08:29:03 51°10.746 2°42.459 249.2 13.7 252 12.8
2010-03-24 08:29:08 51°10.74 2°42.43 249.8 13.6 251 12.8
2010-03-24 08:29:13 51°10.734 2°42.402 249.7 13.6 252 12.8
2010-03-24 08:29:18 51°10.728 2°42.373 249.6 13.7 252 12.8
2010-03-24 08:29:23 51°10.722 2°42.344 249.6 13.7 252 12.9
2010-03-24 08:29:28 51°10.716 2°42.315 249.8 13.7 252 12.9
2010-03-24 08:29:33 51°10.71 2°42.287 249.8 13.6 252 12.8
2010-03-24 08:29:38 51°10.704 2°42.258 249.3 13.6 252 12.9
2010-03-24 08:29:43 51°10.699 2°42.229 249.6 13.7 252 12.9
2010-03-24 08:29:48 51°10.693 2°42.201 249.8 13.7 251 12.9
2010-03-24 08:29:53 51°10.687 2°42.172 249.3 13.7 252 12.8
2010-03-24 08:29:58 51°10.681 2°42.143 249.6 13.7 252 12.9
2010-03-24 08:30:03 51°10.675 2°42.115 249.8 13.6 251 12.9
2010-03-24 08:30:08 51°10.669 2°42.086 249.1 13.7 252 12.9
2010-03-24 08:30:13 51°10.663 2°42.057 249.1 13.7 252 12.9
2010-03-24 08:30:17 51°10.658 2°42.035 249.4 13.7 252 12.8
2010-03-24 08:30:23 51°10.651 2°42 249.4 13.7 252 13
2010-03-24 08:30:28 51°10.646 2°41.972 249.4 13.6 252 12.9
2010-03-24 08:30:33 51°10.64 2°41.943 249.8 13.6 252 12.9
2010-03-24 08:30:38 51°10.634 2°41.914 249.8 13.6 253 12.9
2010-03-24 08:30:43 51°10.628 2°41.886 249.9 13.6 252 12.9
2010-03-24 08:30:48 51°10.623 2°41.857 249.9 13.6 252 12.9
2010-03-24 08:30:53 51°10.617 2°41.829 249.4 13.5 251 12.9
2010-03-24 08:30:58 51°10.611 2°41.8 249.2 13.5 252 12.9
2010-03-24 08:31:03 51°10.605 2°41.772 249 13.6 251 13
2010-03-24 08:31:08 51°10.599 2°41.743 249.1 13.6 252 13
2010-03-24 08:31:13 51°10.593 2°41.715 249.4 13.5 252 12.9
2010-03-24 08:31:18 51°10.588 2°41.687 249.4 13.5 252 12.9
2010-03-24 08:31:23 51°10.582 2°41.658 249.4 13.6 252 12.9
2010-03-24 08:31:28 51°10.576 2°41.63 249.4 13.5 253 12.9
2010-03-24 08:31:33 51°10.57 2°41.601 249.5 13.5 252 12.9
2010-03-24 08:31:38 51°10.564 2°41.573 249.2 13.6 252 13
2010-03-24 08:31:43 51°10.559 2°41.544 249.4 13.5 253 12.9
2010-03-24 08:31:48 51°10.553 2°41.516 249.4 13.5 251 13
2010-03-24 08:31:53 51°10.547 2°41.487 249 13.5 252 12.9
2010-03-24 08:31:58 51°10.542 2°41.459 249 13.5 252 12.9
2010-03-24 08:32:03 51°10.536 2°41.43 249 13.6 252 13
2010-03-24 08:32:08 51°10.53 2°41.402 249.1 13.5 252 13
2010-03-24 08:32:13 51°10.524 2°41.374 249.4 13.4 252 13
2010-03-24 08:32:18 51°10.518 2°41.346 249.1 13.4 252 13
2010-03-24 08:32:23 51°10.512 2°41.317 249 13.5 252 13
2010-03-24 08:32:28 51°10.507 2°41.289 249.1 13.5 252 13
2010-03-24 08:32:33 51°10.501 2°41.26 249.5 13.6 253 12.9
2010-03-24 08:32:37 51°10.497 2°41.237 249.6 13.5 252 13
2010-03-24 08:32:43 51°10.489 2°41.203 249.3 13.5 252 13
2010-03-24 08:32:48 51°10.484 2°41.175 249 13.5 252 13
2010-03-24 08:32:53 51°10.478 2°41.147 249 13.5 252 13
2010-03-24 08:32:58 51°10.472 2°41.118 249 13.5 252 13
2010-03-24 08:33:03 51°10.467 2°41.09 249.4 13.5 253 13
2010-03-24 08:33:08 51°10.461 2°41.061 249.8 13.5 252 13.1
2010-03-24 08:33:13 51°10.455 2°41.033 249.7 13.5 252 13
2010-03-24 08:33:18 51°10.449 2°41.005 249.5 13.5 252 13.2
2010-03-24 08:33:23 51°10.444 2°40.976 249.2 13.5 253 13.2
2010-03-24 08:33:28 51°10.438 2°40.948 249.4 13.5 252 13.1
2010-03-24 08:33:33 51°10.432 2°40.919 249.5 13.5 253 13.2
2010-03-24 08:33:38 51°10.426 2°40.891 249.2 13.5 251 13.1
2010-03-24 08:33:43 51°10.421 2°40.863 248.9 13.5 253 13.1
2010-03-24 08:33:48 51°10.414 2°40.835 249.1 13.5 251 13.1
2010-03-24 08:33:53 51°10.409 2°40.806 248.9 13.5 252 13.1
2010-03-24 08:33:58 51°10.403 2°40.778 249.1 13.5 252 12.9
2010-03-24 08:34:03 51°10.397 2°40.75 249.2 13.4 253 13.1
2010-03-24 08:34:08 51°10.392 2°40.721 249.4 13.5 252 13.1
2010-03-24 08:34:13 51°10.386 2°40.692 249.4 13.5 253 13.1
2010-03-24 08:34:18 51°10.38 2°40.664 249.3 13.6 252 13.2
2010-03-24 08:34:23 51°10.374 2°40.636 249.2 13.5 253 13.2
2010-03-24 08:34:28 51°10.369 2°40.607 249.3 13.5 252 13.2
2010-03-24 08:34:33 51°10.363 2°40.579 249.1 13.6 252 13.2
2010-03-24 08:34:38 51°10.357 2°40.55 248.9 13.6 252 13.3
2010-03-24 08:34:43 51°10.351 2°40.522 249 13.6 252 13.3
2010-03-24 08:34:48 51°10.345 2°40.493 249 13.6 252 13.2
2010-03-24 08:34:53 51°10.34 2°40.465 249 13.6 253 13.2
2010-03-24 08:34:57 51°10.335 2°40.442 249.4 13.6 252 13.2
2010-03-24 08:35:03 51°10.328 2°40.408 249.3 13.6 252 13.3
2010-03-24 08:35:08 51°10.323 2°40.38 249.2 13.5 252 13.2
2010-03-24 08:35:13 51°10.317 2°40.351 249.2 13.6 252 13.4
2010-03-24 08:35:18 51°10.311 2°40.323 249.1 13.6 252 13.4
2010-03-24 08:35:23 51°10.305 2°40.294 249.2 13.6 252 13.3
2010-03-24 08:35:28 51°10.299 2°40.266 249 13.6 252 13.4
2010-03-24 08:35:33 51°10.294 2°40.237 249 13.6 253 13.4
2010-03-24 08:35:38 51°10.288 2°40.209 249.1 13.6 252 13.5
2010-03-24 08:35:43 51°10.283 2°40.18 249.3 13.6 253 13.4
2010-03-24 08:35:48 51°10.277 2°40.151 249.4 13.6 253 13.5
2010-03-24 08:35:53 51°10.272 2°40.122 249.5 13.6 253 13.5
2010-03-24 08:35:58 51°10.266 2°40.094 249.6 13.6 253 13.5
2010-03-24 08:36:03 51°10.26 2°40.065 249.6 13.6 252 13.6
2010-03-24 08:36:08 51°10.254 2°40.037 249.1 13.6 252 13.6
2010-03-24 08:36:13 51°10.249 2°40.008 249 13.6 253 13.6
2010-03-24 08:36:18 51°10.243 2°39.98 249 13.6 252 13.6
2010-03-24 08:36:23 51°10.237 2°39.951 248.9 13.6 252 13.7
2010-03-24 08:36:28 51°10.232 2°39.922 248.9 13.6 253 13.7
2010-03-24 08:36:33 51°10.226 2°39.894 249.3 13.6 253 13.8
2010-03-24 08:36:38 51°10.221 2°39.865 249.4 13.6 253 13.8
2010-03-24 08:36:43 51°10.215 2°39.836 249.4 13.6 253 13.8
2010-03-24 08:36:48 51°10.21 2°39.807 249.5 13.6 252 13.9
2010-03-24 08:36:53 51°10.203 2°39.779 248.9 13.6 251 13.8
2010-03-24 08:36:58 51°10.197 2°39.751 248.1 13.6 252 13.9
2010-03-24 08:37:03 51°10.191 2°39.723 247.4 13.6 250 14
2010-03-24 08:37:08 51°10.184 2°39.695 246.5 13.6 250 14
2010-03-24 08:37:13 51°10.177 2°39.667 245.9 13.5 249 13.9
2010-03-24 08:37:18 51°10.171 2°39.639 245.4 13.6 249 14
2010-03-24 08:37:23 51°10.164 2°39.611 244.9 13.5 247 14
2010-03-24 08:37:28 51°10.156 2°39.584 244.4 13.5 248 14
2010-03-24 08:37:33 51°10.149 2°39.556 244 13.6 247 14.1
2010-03-24 08:37:38 51°10.142 2°39.529 243.7 13.6 247 14
2010-03-24 08:37:43 51°10.134 2°39.501 243.5 13.6 247 14.1
2010-03-24 08:37:48 51°10.127 2°39.473 243.6 13.6 249 14.1
2010-03-24 08:37:53 51°10.12 2°39.446 243.9 13.6 246 14.1
2010-03-24 08:37:57 51°10.114 2°39.423 244 13.6 249 14.1
2010-03-24 08:38:03 51°10.106 2°39.39 244.4 13.6 247 14.1
2010-03-24 08:38:08 51°10.098 2°39.362 244 13.6 248 14.2
2010-03-24 08:38:13 51°10.091 2°39.335 244 13.7 248 14.3
2010-03-24 08:38:18 51°10.084 2°39.307 244.1 13.6 248 14.3
2010-03-24 08:38:23 51°10.077 2°39.279 243.8 13.7 247 14.4
2010-03-24 08:38:28 51°10.07 2°39.251 244 13.7 249 14.2
2010-03-24 08:38:33 51°10.062 2°39.223 244.2 13.7 247 14.4
2010-03-24 08:38:38 51°10.056 2°39.195 244.3 13.7 248 14.3
2010-03-24 08:38:43 51°10.048 2°39.167 244.4 13.7 248 14.4
2010-03-24 08:38:48 51°10.041 2°39.139 244.4 13.7 248 14.5
2010-03-24 08:38:53 51°10.034 2°39.111 244.4 13.7 248 14.4
2010-03-24 08:38:58 51°10.027 2°39.083 244.4 13.7 248 14.5
2010-03-24 08:39:03 51°10.02 2°39.055 244 13.7 248 14.4
2010-03-24 08:39:08 51°10.013 2°39.027 244 13.7 248 14.5
2010-03-24 08:39:13 51°10.006 2°38.999 243.9 13.7 248 14.5
2010-03-24 08:39:18 51°9.999 2°38.971 244 13.7 248 14.5
2010-03-24 08:39:23 51°9.991 2°38.943 244.2 13.7 247 14.6
2010-03-24 08:39:28 51°9.984 2°38.916 243.9 13.7 248 14.6
2010-03-24 08:39:33 51°9.977 2°38.888 244 13.7 248 14.6
2010-03-24 08:39:38 51°9.97 2°38.859 244.3 13.7 248 14.6
2010-03-24 08:39:43 51°9.963 2°38.832 244.1 13.7 248 14.7
2010-03-24 08:39:48 51°9.956 2°38.803 243.9 13.7 249 14.6
2010-03-24 08:39:53 51°9.948 2°38.776 243.9 13.7 247 14.7
2010-03-24 08:39:58 51°9.942 2°38.747 243.7 13.7 248 14.7
2010-03-24 08:40:03 51°9.934 2°38.72 243.9 13.7 248 14.7
2010-03-24 08:40:08 51°9.927 2°38.691 244.1 13.7 249 14.8
2010-03-24 08:40:13 51°9.92 2°38.663 244.3 13.7 248 14.7
2010-03-24 08:40:18 51°9.913 2°38.636 244 13.7 247 14.8
2010-03-24 08:40:23 51°9.906 2°38.607 244 13.7 248 14.9
2010-03-24 08:40:28 51°9.899 2°38.579 244.1 13.7 248 14.8
2010-03-24 08:40:33 51°9.891 2°38.551 243.7 13.7 248 14.9
2010-03-24 08:40:38 51°9.884 2°38.523 243.6 13.8 248 14.9
2010-03-24 08:40:43 51°9.877 2°38.495 244 13.7 248 14.9
2010-03-24 08:40:48 51°9.87 2°38.467 243.8 13.8 248 15
2010-03-24 08:40:53 51°9.863 2°38.439 244 13.8 249 15
2010-03-24 08:40:58 51°9.856 2°38.411 244.1 13.8 248 15
2010-03-24 08:41:03 51°9.849 2°38.382 243.9 13.8 248 15.1
2010-03-24 08:41:08 51°9.841 2°38.354 243.7 13.7 248 15
2010-03-24 08:41:13 51°9.834 2°38.326 243.6 13.8 248 15.1
2010-03-24 08:41:17 51°9.828 2°38.304 243.5 13.8 248 15.2
2010-03-24 08:41:23 51°9.82 2°38.27 244 13.8 248 15.2
2010-03-24 08:41:28 51°9.813 2°38.242 244 13.8 248 15.2
2010-03-24 08:41:33 51°9.805 2°38.214 244 13.8 248 15.2
2010-03-24 08:41:38 51°9.798 2°38.186 243.8 13.8 248 15.2
2010-03-24 08:41:43 51°9.791 2°38.157 244 13.8 248 15.2
2010-03-24 08:41:48 51°9.784 2°38.129 244 13.8 248 15.3
2010-03-24 08:41:53 51°9.777 2°38.101 244.1 13.8 249 15.3
2010-03-24 08:41:57 51°9.771 2°38.078 244.2 13.8 248 15.3
2010-03-24 08:42:03 51°9.763 2°38.045 244.2 13.8 248 15.3
2010-03-24 08:42:08 51°9.755 2°38.016 244 13.8 248 15.4
2010-03-24 08:42:13 51°9.748 2°37.988 243.9 13.7 247 15.5
2010-03-24 08:42:18 51°9.741 2°37.96 243.6 13.8 248 15.5
2010-03-24 08:42:23 51°9.734 2°37.932 243.8 13.8 248 15.4
2010-03-24 08:42:28 51°9.726 2°37.905 244 13.8 248 15.5
2010-03-24 08:42:33 51°9.719 2°37.876 244 13.8 249 15.5
2010-03-24 08:42:38 51°9.712 2°37.848 244.3 13.8 248 15.6
2010-03-24 08:42:43 51°9.705 2°37.82 244.1 13.8 249 15.5
2010-03-24 08:42:48 51°9.698 2°37.791 244.1 13.8 248 15.6
2010-03-24 08:42:53 51°9.691 2°37.763 244.3 13.7 249 15.6
2010-03-24 08:42:58 51°9.684 2°37.735 244.3 13.8 248 15.6
2010-03-24 08:43:03 51°9.677 2°37.706 244.3 13.8 249 15.8
2010-03-24 08:43:08 51°9.67 2°37.677 244.7 13.8 249 15.8
2010-03-24 08:43:13 51°9.663 2°37.649 244.4 13.7 248 15.8
2010-03-24 08:43:17 51°9.657 2°37.626 244 13.9 249 15.9
2010-03-24 08:43:23 51°9.649 2°37.592 244.2 13.8 248 15.8
2010-03-24 08:43:28 51°9.642 2°37.564 244.4 13.8 248 15.9
2010-03-24 08:43:33 51°9.635 2°37.535 244 13.8 248 15.9
2010-03-24 08:43:38 51°9.628 2°37.507 244 13.9 249 16
2010-03-24 08:43:43 51°9.621 2°37.479 244.4 13.8 248 16
2010-03-24 08:43:48 51°9.613 2°37.451 244 13.8 247 16.1
2010-03-24 08:43:53 51°9.606 2°37.422 243.9 13.9 249 16.1
2010-03-24 08:43:58 51°9.599 2°37.394 244.2 13.8 248 16.2
2010-03-24 08:44:03 51°9.592 2°37.366 244.2 13.8 248 16.3
2010-03-24 08:44:08 51°9.585 2°37.338 243.9 13.9 248 16.4
2010-03-24 08:44:13 51°9.578 2°37.309 244.2 13.9 249 16.4
2010-03-24 08:44:18 51°9.57 2°37.281 244.3 13.8 247 16.4
2010-03-24 08:44:23 51°9.563 2°37.252 244 13.8 249 16.3
2010-03-24 08:44:28 51°9.556 2°37.224 243.8 13.8 247 16.3
2010-03-24 08:44:33 51°9.549 2°37.196 243.7 13.9 249 16.4
2010-03-24 08:44:37 51°9.543 2°37.173 244.3 13.9 248 16.2
2010-03-24 08:44:43 51°9.534 2°37.139 244.4 13.8 248 16.2
2010-03-24 08:44:48 51°9.527 2°37.111 243.7 13.8 246 16.5
2010-03-24 08:44:53 51°9.519 2°37.084 242.3 13.9 246 16.7
2010-03-24 08:44:58 51°9.511 2°37.056 242 13.8 246 16.8
2010-03-24 08:45:03 51°9.502 2°37.029 240.9 13.8 244 16.6
2010-03-24 08:45:08 51°9.494 2°37.001 240.2 13.9 245 16.8
2010-03-24 08:45:13 51°9.486 2°36.974 240.3 13.8 243 16.7
2010-03-24 08:45:18 51°9.477 2°36.947 239.5 13.8 244 16.6
2010-03-24 08:45:23 51°9.468 2°36.919 239.2 13.8 243 16.7
2010-03-24 08:45:28 51°9.46 2°36.893 238.9 13.8 243 16.7
2010-03-24 08:45:33 51°9.451 2°36.866 238.4 13.8 242 16.7
2010-03-24 08:45:38 51°9.442 2°36.839 238.4 13.8 243 16.8
2010-03-24 08:45:43 51°9.433 2°36.812 238.5 13.8 243 16.7
2010-03-24 08:45:48 51°9.424 2°36.784 238.7 13.8 242 16.7
2010-03-24 08:45:53 51°9.416 2°36.757 238.7 13.9 243 16.7
2010-03-24 08:45:57 51°9.409 2°36.735 239.1 13.8 244 16.6
2010-03-24 08:46:03 51°9.398 2°36.703 239.1 13.8 243 16.7
2010-03-24 08:46:08 51°9.39 2°36.675 238.9 13.8 243 16.7
2010-03-24 08:46:13 51°9.381 2°36.648 239.3 13.8 243 16.7
2010-03-24 08:46:18 51°9.372 2°36.621 239.2 13.8 243 16.7
2010-03-24 08:46:23 51°9.364 2°36.594 239.2 13.8 243 16.7
2010-03-24 08:46:28 51°9.355 2°36.567 239.2 13.8 243 16.7
2010-03-24 08:46:33 51°9.346 2°36.539 239.2 13.9 243 16.7
2010-03-24 08:46:38 51°9.338 2°36.512 238.9 13.9 243 16.7
2010-03-24 08:46:43 51°9.329 2°36.485 239.2 13.8 243 16.7
2010-03-24 08:46:48 51°9.32 2°36.458 238.9 13.9 243 16.7
2010-03-24 08:46:53 51°9.311 2°36.43 238.9 13.9 243 16.7
2010-03-24 08:46:58 51°9.303 2°36.403 239.1 13.9 243 16.7
2010-03-24 08:47:03 51°9.294 2°36.376 238.9 13.9 243 16.7
2010-03-24 08:47:08 51°9.285 2°36.348 238.8 13.9 243 16.8
2010-03-24 08:47:13 51°9.276 2°36.321 238.9 13.8 243 16.7
2010-03-24 08:47:18 51°9.267 2°36.294 239 13.9 244 16.7
2010-03-24 08:47:23 51°9.259 2°36.267 239 13.9 243 16.8
2010-03-24 08:47:28 51°9.25 2°36.239 239.1 13.8 243 16.7
2010-03-24 08:47:33 51°9.241 2°36.212 238.9 13.9 243 16.8
2010-03-24 08:47:38 51°9.232 2°36.185 238.9 13.9 243 16.8
2010-03-24 08:47:43 51°9.224 2°36.158 239.1 13.9 243 16.8
2010-03-24 08:47:48 51°9.215 2°36.13 239.1 13.9 243 16.9
2010-03-24 08:47:53 51°9.206 2°36.103 239.1 13.9 243 16.8
2010-03-24 08:47:57 51°9.199 2°36.081 239.3 13.8 243 16.9
2010-03-24 08:48:03 51°9.189 2°36.049 239.3 13.8 243 16.9
2010-03-24 08:48:08 51°9.18 2°36.022 239.1 13.9 242 16.9
2010-03-24 08:48:13 51°9.171 2°35.994 238.9 13.8 243 16.9
2010-03-24 08:48:18 51°9.162 2°35.967 239 13.8 242 16.9
2010-03-24 08:48:23 51°9.154 2°35.94 238.9 13.8 243 16.9
2010-03-24 08:48:28 51°9.145 2°35.913 238.9 13.8 242 16.9
2010-03-24 08:48:33 51°9.136 2°35.886 238.9 13.8 243 16.9
2010-03-24 08:48:37 51°9.129 2°35.864 238.9 13.8 242 16.9
2010-03-24 08:48:43 51°9.118 2°35.832 238.9 13.9 243 17
2010-03-24 08:48:48 51°9.109 2°35.805 239 13.8 242 16.9
2010-03-24 08:48:53 51°9.101 2°35.778 239 13.8 243 16.9
2010-03-24 08:48:58 51°9.092 2°35.75 238.9 13.9 243 17
2010-03-24 08:49:03 51°9.083 2°35.723 239.2 13.9 243 17
2010-03-24 08:49:08 51°9.075 2°35.695 239.5 13.8 243 17
2010-03-24 08:49:13 51°9.066 2°35.668 239.3 13.8 242 16.9
2010-03-24 08:49:18 51°9.057 2°35.641 238.9 13.9 243 17
2010-03-24 08:49:23 51°9.048 2°35.614 238.9 13.9 243 17
2010-03-24 08:49:28 51°9.04 2°35.586 239.2 13.9 243 17
2010-03-24 08:49:33 51°9.031 2°35.559 239.4 13.9 243 17
2010-03-24 08:49:38 51°9.022 2°35.532 239.4 13.9 243 17.1
2010-03-24 08:49:43 51°9.013 2°35.505 239.2 13.9 243 17.1
2010-03-24 08:49:48 51°9.005 2°35.477 239.2 13.9 243 17
2010-03-24 08:49:53 51°8.996 2°35.45 239.4 13.9 243 17.1
2010-03-24 08:49:58 51°8.987 2°35.423 239.5 13.9 243 17.1
2010-03-24 08:50:03 51°8.979 2°35.395 239.5 13.9 243 17.1
2010-03-24 08:50:08 51°8.97 2°35.368 239.2 13.9 243 17.2
2010-03-24 08:50:13 51°8.961 2°35.341 239.2 13.9 243 17.2
2010-03-24 08:50:18 51°8.952 2°35.313 239.5 13.9 243 17.1
2010-03-24 08:50:23 51°8.944 2°35.286 239.5 13.9 243 17.1
2010-03-24 08:50:28 51°8.934 2°35.259 239.1 13.9 241 17.1
2010-03-24 08:50:33 51°8.925 2°35.232 238.2 13.9 242 17.2
2010-03-24 08:50:37 51°8.918 2°35.211 237.6 13.9 241 17.2
2010-03-24 08:50:43 51°8.906 2°35.179 237 13.8 241 17.2
2010-03-24 08:50:48 51°8.897 2°35.152 236.7 13.9 240 17.1
2010-03-24 08:50:53 51°8.887 2°35.126 236.5 13.9 240 17.1
2010-03-24 08:50:58 51°8.878 2°35.099 236.2 13.9 240 17.2
2010-03-24 08:51:03 51°8.868 2°35.073 236.3 13.8 240 17.2
2010-03-24 08:51:08 51°8.858 2°35.046 236.1 13.9 240 17.1
2010-03-24 08:51:13 51°8.849 2°35.02 235.9 13.9 240 17.3
2010-03-24 08:51:18 51°8.839 2°34.993 236.2 13.9 240 17.2
2010-03-24 08:51:23 51°8.829 2°34.967 236.1 13.9 240 17.2
2010-03-24 08:51:28 51°8.82 2°34.94 236.1 13.9 241 17.4
2010-03-24 08:51:33 51°8.81 2°34.914 236.6 13.8 240 17.2
2010-03-24 08:51:38 51°8.8 2°34.887 236.4 13.9 240 17.2
2010-03-24 08:51:43 51°8.791 2°34.861 236.3 13.9 241 17.4
2010-03-24 08:51:48 51°8.781 2°34.834 236.6 13.8 240 17.2
2010-03-24 08:51:53 51°8.771 2°34.808 236.2 13.9 239 17.4
2010-03-24 08:51:58 51°8.762 2°34.781 236 14 240 17.4
2010-03-24 08:52:03 51°8.752 2°34.755 236.6 13.9 240 17.4
2010-03-24 08:52:08 51°8.742 2°34.728 236.2 13.9 240 17.2
2010-03-24 08:52:13 51°8.733 2°34.701 236.1 13.9 239 17.4
2010-03-24 08:52:18 51°8.723 2°34.675 236 13.9 240 17.4
2010-03-24 08:52:23 51°8.713 2°34.649 236 13.9 239 17.3
2010-03-24 08:52:28 51°8.703 2°34.622 235.8 13.9 240 17.5
2010-03-24 08:52:33 51°8.694 2°34.596 236.1 13.9 240 17.5
2010-03-24 08:52:38 51°8.684 2°34.57 236 13.8 239 17.6
2010-03-24 08:52:43 51°8.674 2°34.543 235.9 13.8 240 17.7
2010-03-24 08:52:48 51°8.664 2°34.517 236.1 13.8 239 17.7
2010-03-24 08:52:53 51°8.654 2°34.491 235.9 13.8 240 17.8
2010-03-24 08:52:58 51°8.645 2°34.464 236.2 13.8 240 17.7
2010-03-24 08:53:03 51°8.635 2°34.438 236.4 13.8 240 17.7
2010-03-24 08:53:08 51°8.625 2°34.412 236.4 13.8 240 17.8
2010-03-24 08:53:13 51°8.616 2°34.385 236.3 13.8 239 17.7
2010-03-24 08:53:18 51°8.606 2°34.359 236.3 13.8 240 17.8
2010-03-24 08:53:23 51°8.596 2°34.333 236.5 13.8 239 17.7
2010-03-24 08:53:28 51°8.586 2°34.307 236 13.8 238 17.6
2010-03-24 08:53:33 51°8.576 2°34.281 235.2 13.8 238 17.7
2010-03-24 08:53:38 51°8.566 2°34.255 234.5 13.8 238 17.7
2010-03-24 08:53:43 51°8.555 2°34.23 234.1 13.8 237 17.6
2010-03-24 08:53:48 51°8.545 2°34.205 233.2 13.8 237 17.7
2010-03-24 08:53:53 51°8.534 2°34.179 233.4 13.8 237 17.6
2010-03-24 08:53:58 51°8.524 2°34.154 233.1 13.8 236 17.6
2010-03-24 08:54:03 51°8.513 2°34.129 232.8 13.8 237 17.6
2010-03-24 08:54:08 51°8.502 2°34.104 232.9 13.7 236 17.6
2010-03-24 08:54:13 51°8.492 2°34.078 232.9 13.8 236 17.6
2010-03-24 08:54:18 51°8.481 2°34.053 232.6 13.8 236 17.6
2010-03-24 08:54:23 51°8.471 2°34.028 233.1 13.8 236 17.6
2010-03-24 08:54:28 51°8.46 2°34.002 233.1 13.8 236 17.5
2010-03-24 08:54:33 51°8.449 2°33.977 232.9 13.8 236 17.5
2010-03-24 08:54:38 51°8.439 2°33.951 232.9 13.8 236 17.5
2010-03-24 08:54:43 51°8.428 2°33.926 232.9 13.8 236 17.5
2010-03-24 08:54:48 51°8.418 2°33.901 232.9 13.8 236 17.5
2010-03-24 08:54:53 51°8.407 2°33.876 232.5 13.8 236 17.5
2010-03-24 08:54:58 51°8.396 2°33.851 232.9 13.8 237 17.4
2010-03-24 08:55:03 51°8.385 2°33.826 232.9 13.9 236 17.5
2010-03-24 08:55:08 51°8.374 2°33.801 232.4 13.8 235 17.5
2010-03-24 08:55:13 51°8.363 2°33.776 231.4 13.7 233 17.4
2010-03-24 08:55:18 51°8.351 2°33.752 230.1 13.7 234 17.4
2010-03-24 08:55:23 51°8.34 2°33.728 229.6 13.8 230 17.5
2010-03-24 08:55:28 51°8.327 2°33.705 228.1 13.7 230 17.4
2010-03-24 08:55:33 51°8.315 2°33.682 227.1 13.7 230 17.2
2010-03-24 08:55:38 51°8.302 2°33.66 225 13.7 226 17.1
2010-03-24 08:55:43 51°8.289 2°33.638 223.6 13.7 226 17
2010-03-24 08:55:48 51°8.275 2°33.617 222.3 13.7 224 17
2010-03-24 08:55:53 51°8.261 2°33.596 221.1 13.7 224 16.9
2010-03-24 08:55:58 51°8.247 2°33.576 220.3 13.7 223 16.8
2010-03-24 08:56:03 51°8.233 2°33.555 219.7 13.7 223 16.6
2010-03-24 08:56:08 51°8.219 2°33.535 219.2 13.6 221 16.5
2010-03-24 08:56:13 51°8.205 2°33.515 218.6 13.7 222 16.4
2010-03-24 08:56:18 51°8.191 2°33.495 218.4 13.7 222 16.2
2010-03-24 08:56:23 51°8.176 2°33.475 218 13.7 220 16
2010-03-24 08:56:28 51°8.162 2°33.455 217.8 13.7 222 15.8
2010-03-24 08:56:33 51°8.148 2°33.436 217.8 13.7 221 15.6
2010-03-24 08:56:38 51°8.134 2°33.416 217.8 13.7 222 15.2
2010-03-24 08:56:43 51°8.119 2°33.396 218 13.7 221 15.1
2010-03-24 08:56:48 51°8.105 2°33.376 218.1 13.7 222 14.5
2010-03-24 08:56:53 51°8.091 2°33.356 218.2 13.7 222 14.3
2010-03-24 08:56:58 51°8.077 2°33.336 218.5 13.6 221 14.1
2010-03-24 08:57:03 51°8.062 2°33.316 218 13.6 221 13.8
2010-03-24 08:57:08 51°8.048 2°33.296 217.8 13.7 221 13.4
2010-03-24 08:57:13 51°8.034 2°33.276 218.1 13.7 222 13.3
2010-03-24 08:57:18 51°8.02 2°33.256 218.4 13.6 221 13
2010-03-24 08:57:23 51°8.006 2°33.236 218 13.7 221 12.6
2010-03-24 08:57:28 51°7.992 2°33.216 218 13.7 222 12.7
2010-03-24 08:57:33 51°7.977 2°33.196 218.6 13.6 222 12.3
2010-03-24 08:57:38 51°7.963 2°33.177 218.5 13.4 221 12.4
2010-03-24 08:57:43 51°7.95 2°33.159 218.2 12.2 222 12.2
2010-03-24 08:57:48 51°7.938 2°33.142 218.5 11.3 221 12.3
2010-03-24 08:57:53 51°7.927 2°33.128 217.6 10.5 219 12.4
2010-03-24 08:57:57 51°7.919 2°33.118 215.2 9.4 216 12
2010-03-24 08:58:03 51°7.906 2°33.105 211.7 8.5 211 12
2010-03-24 08:58:08 51°7.897 2°33.097 207.6 7.7 208 11.9